sensor_id;sensor_type;location;lat;lon;timestamp;pressure;altitude;pressure_sealevel;temperature;humidity
10464;BME280;5279;42.048;24.638;2023-12-07T00:01:48;97112.59;;;5.07;100.00
10464;BME280;5279;42.048;24.638;2023-12-07T00:04:15;97120.94;;;5.12;100.00
10464;BME280;5279;42.048;24.638;2023-12-07T00:06:41;97133.47;;;5.09;100.00
10464;BME280;5279;42.048;24.638;2023-12-07T00:09:10;97120.47;;;4.96;100.00
10464;BME280;5279;42.048;24.638;2023-12-07T00:11:36;97121.31;;;4.96;100.00
10464;BME280;5279;42.048;24.638;2023-12-07T00:14:03;97119.06;;;4.92;100.00
10464;BME280;5279;42.048;24.638;2023-12-07T00:16:30;97116.19;;;4.95;100.00
10464;BME280;5279;42.048;24.638;2023-12-07T00:18:56;97120.38;;;4.97;100.00
10464;BME280;5279;42.048;24.638;2023-12-07T00:21:23;97124.88;;;4.95;100.00
10464;BME280;5279;42.048;24.638;2023-12-07T00:23:50;97120.50;;;4.85;100.00
10464;BME280;5279;42.048;24.638;2023-12-07T00:26:18;97124.81;;;4.86;100.00
10464;BME280;5279;42.048;24.638;2023-12-07T00:28:45;97127.28;;;4.87;100.00
10464;BME280;5279;42.048;24.638;2023-12-07T00:31:11;97122.19;;;4.86;100.00
10464;BME280;5279;42.048;24.638;2023-12-07T00:33:38;97123.22;;;4.83;100.00
10464;BME280;5279;42.048;24.638;2023-12-07T00:36:06;97121.94;;;4.78;100.00
10464;BME280;5279;42.048;24.638;2023-12-07T00:38:33;97125.03;;;4.83;100.00
10464;BME280;5279;42.048;24.638;2023-12-07T00:41:01;97116.69;;;4.89;100.00
10464;BME280;5279;42.048;24.638;2023-12-07T00:43:29;97120.72;;;4.93;100.00
10464;BME280;5279;42.048;24.638;2023-12-07T00:45:56;97125.13;;;4.92;100.00
10464;BME280;5279;42.048;24.638;2023-12-07T00:48:23;97126.69;;;4.84;100.00
10464;BME280;5279;42.048;24.638;2023-12-07T00:50:49;97129.81;;;4.89;100.00
10464;BME280;5279;42.048;24.638;2023-12-07T00:53:16;97131.94;;;4.84;100.00
10464;BME280;5279;42.048;24.638;2023-12-07T00:55:43;97123.72;;;4.88;100.00
10464;BME280;5279;42.048;24.638;2023-12-07T00:58:09;97119.66;;;4.84;100.00
10464;BME280;5279;42.048;24.638;2023-12-07T01:00:37;97124.81;;;4.86;100.00
10464;BME280;5279;42.048;24.638;2023-12-07T01:03:04;97129.69;;;4.79;100.00
10464;BME280;5279;42.048;24.638;2023-12-07T01:05:31;97118.69;;;4.74;100.00
10464;BME280;5279;42.048;24.638;2023-12-07T01:07:58;97119.06;;;4.70;100.00
10464;BME280;5279;42.048;24.638;2023-12-07T01:10:25;97123.50;;;4.69;100.00
10464;BME280;5279;42.048;24.638;2023-12-07T01:12:52;97113.94;;;4.79;100.00
10464;BME280;5279;42.048;24.638;2023-12-07T01:15:19;97125.50;;;4.88;100.00
10464;BME280;5279;42.048;24.638;2023-12-07T01:17:47;97110.47;;;4.90;100.00
10464;BME280;5279;42.048;24.638;2023-12-07T01:20:13;97118.81;;;4.95;100.00
10464;BME280;5279;42.048;24.638;2023-12-07T01:22:40;97111.41;;;5.00;100.00
10464;BME280;5279;42.048;24.638;2023-12-07T01:25:07;97116.66;;;5.00;100.00
10464;BME280;5279;42.048;24.638;2023-12-07T01:27:34;97114.03;;;5.00;100.00
10464;BME280;5279;42.048;24.638;2023-12-07T01:30:01;97109.72;;;4.99;100.00
10464;BME280;5279;42.048;24.638;2023-12-07T01:32:28;97100.41;;;5.06;100.00
10464;BME280;5279;42.048;24.638;2023-12-07T01:34:57;97114.72;;;5.13;100.00
10464;BME280;5279;42.048;24.638;2023-12-07T01:37:23;97107.56;;;5.15;100.00
10464;BME280;5279;42.048;24.638;2023-12-07T01:39:50;97122.72;;;5.23;100.00
10464;BME280;5279;42.048;24.638;2023-12-07T01:42:17;97123.03;;;5.29;100.00
10464;BME280;5279;42.048;24.638;2023-12-07T01:44:44;97123.50;;;5.34;100.00
10464;BME280;5279;42.048;24.638;2023-12-07T01:47:11;97121.13;;;5.31;100.00
10464;BME280;5279;42.048;24.638;2023-12-07T01:49:38;97107.75;;;5.23;100.00
10464;BME280;5279;42.048;24.638;2023-12-07T01:52:08;97118.16;;;5.25;100.00
10464;BME280;5279;42.048;24.638;2023-12-07T01:54:35;97123.50;;;5.34;100.00
10464;BME280;5279;42.048;24.638;2023-12-07T01:57:02;97122.22;;;5.29;100.00
10464;BME280;5279;42.048;24.638;2023-12-07T01:59:29;97114.19;;;5.30;100.00
10464;BME280;5279;42.048;24.638;2023-12-07T02:01:56;97123.28;;;5.26;100.00
10464;BME280;5279;42.048;24.638;2023-12-07T02:04:22;97116.63;;;5.22;100.00
10464;BME280;5279;42.048;24.638;2023-12-07T02:06:50;97117.78;;;5.29;100.00
10464;BME280;5279;42.048;24.638;2023-12-07T02:09:20;97122.28;;;5.38;100.00
10464;BME280;5279;42.048;24.638;2023-12-07T02:11:47;97120.13;;;5.43;100.00
10464;BME280;5279;42.048;24.638;2023-12-07T02:14:14;97119.75;;;5.48;100.00
10464;BME280;5279;42.048;24.638;2023-12-07T02:16:45;97119.28;;;5.43;100.00
10464;BME280;5279;42.048;24.638;2023-12-07T02:19:25;97117.63;;;5.42;100.00
10464;BME280;5279;42.048;24.638;2023-12-07T02:22:02;97118.75;;;5.17;100.00
10464;BME280;5279;42.048;24.638;2023-12-07T02:24:33;97109.94;;;5.18;100.00
10464;BME280;5279;42.048;24.638;2023-12-07T02:27:04;97114.25;;;5.19;100.00
10464;BME280;5279;42.048;24.638;2023-12-07T02:29:30;97111.63;;;5.08;100.00
10464;BME280;5279;42.048;24.638;2023-12-07T02:31:57;97104.19;;;5.24;100.00
10464;BME280;5279;42.048;24.638;2023-12-07T02:34:24;97112.84;;;5.36;100.00
10464;BME280;5279;42.048;24.638;2023-12-07T02:36:53;97101.00;;;5.41;100.00
10464;BME280;5279;42.048;24.638;2023-12-07T02:39:20;97097.78;;;5.49;100.00
10464;BME280;5279;42.048;24.638;2023-12-07T02:41:49;97100.72;;;5.56;100.00
10464;BME280;5279;42.048;24.638;2023-12-07T02:44:17;97097.59;;;5.62;100.00
10464;BME280;5279;42.048;24.638;2023-12-07T02:46:45;97100.69;;;5.67;100.00
10464;BME280;5279;42.048;24.638;2023-12-07T02:49:12;97097.53;;;5.73;100.00
10464;BME280;5279;42.048;24.638;2023-12-07T02:51:39;97101.84;;;5.74;100.00
10464;BME280;5279;42.048;24.638;2023-12-07T02:54:06;97098.50;;;5.72;100.00
10464;BME280;5279;42.048;24.638;2023-12-07T02:56:32;97098.25;;;5.75;100.00
10464;BME280;5279;42.048;24.638;2023-12-07T02:58:59;97096.34;;;5.77;100.00
10464;BME280;5279;42.048;24.638;2023-12-07T03:01:26;97097.97;;;5.78;100.00
10464;BME280;5279;42.048;24.638;2023-12-07T03:03:53;97095.09;;;5.81;100.00
10464;BME280;5279;42.048;24.638;2023-12-07T03:06:19;97098.44;;;5.83;100.00
10464;BME280;5279;42.048;24.638;2023-12-07T03:08:46;97099.41;;;5.82;100.00
10464;BME280;5279;42.048;24.638;2023-12-07T03:11:13;97102.72;;;5.84;100.00
10464;BME280;5279;42.048;24.638;2023-12-07T03:13:39;97100.03;;;5.85;100.00
10464;BME280;5279;42.048;24.638;2023-12-07T03:16:09;97100.59;;;5.89;100.00
10464;BME280;5279;42.048;24.638;2023-12-07T03:18:37;97108.50;;;5.89;100.00
10464;BME280;5279;42.048;24.638;2023-12-07T03:21:04;97102.03;;;5.82;100.00
10464;BME280;5279;42.048;24.638;2023-12-07T03:23:31;97106.84;;;5.77;100.00
10464;BME280;5279;42.048;24.638;2023-12-07T03:25:58;97099.84;;;5.66;100.00
10464;BME280;5279;42.048;24.638;2023-12-07T03:28:25;97094.75;;;5.53;100.00
10464;BME280;5279;42.048;24.638;2023-12-07T03:30:51;97104.81;;;5.48;100.00
10464;BME280;5279;42.048;24.638;2023-12-07T03:33:18;97093.59;;;5.46;100.00
10464;BME280;5279;42.048;24.638;2023-12-07T03:35:46;97090.41;;;5.43;100.00
10464;BME280;5279;42.048;24.638;2023-12-07T03:38:14;97091.09;;;5.45;100.00
10464;BME280;5279;42.048;24.638;2023-12-07T03:40:41;97092.53;;;5.49;100.00
10464;BME280;5279;42.048;24.638;2023-12-07T03:43:07;97091.56;;;5.50;100.00
10464;BME280;5279;42.048;24.638;2023-12-07T03:45:34;97091.69;;;5.48;100.00
10464;BME280;5279;42.048;24.638;2023-12-07T03:48:01;97091.69;;;5.48;100.00
10464;BME280;5279;42.048;24.638;2023-12-07T03:50:27;97092.31;;;5.41;100.00
10464;BME280;5279;42.048;24.638;2023-12-07T03:52:56;97090.75;;;5.38;100.00
10464;BME280;5279;42.048;24.638;2023-12-07T03:55:22;97081.22;;;5.37;100.00
10464;BME280;5279;42.048;24.638;2023-12-07T03:57:49;97079.69;;;5.35;100.00
10464;BME280;5279;42.048;24.638;2023-12-07T04:00:16;97086.97;;;5.31;100.00
10464;BME280;5279;42.048;24.638;2023-12-07T04:02:43;97088.63;;;5.32;100.00
10464;BME280;5279;42.048;24.638;2023-12-07T04:05:09;97089.34;;;5.34;100.00
10464;BME280;5279;42.048;24.638;2023-12-07T04:07:37;97089.09;;;5.37;100.00
10464;BME280;5279;42.048;24.638;2023-12-07T04:10:06;97092.19;;;5.42;100.00
10464;BME280;5279;42.048;24.638;2023-12-07T04:12:33;97085.25;;;5.41;100.00
10464;BME280;5279;42.048;24.638;2023-12-07T04:15:00;97093.84;;;5.43;100.00
10464;BME280;5279;42.048;24.638;2023-12-07T04:17:26;97082.50;;;5.43;100.00
10464;BME280;5279;42.048;24.638;2023-12-07T04:19:53;97086.69;;;5.45;100.00
10464;BME280;5279;42.048;24.638;2023-12-07T04:22:20;97096.25;;;5.35;100.00
10464;BME280;5279;42.048;24.638;2023-12-07T04:24:47;97088.75;;;5.31;100.00
10464;BME280;5279;42.048;24.638;2023-12-07T04:27:15;97101.19;;;5.29;100.00
10464;BME280;5279;42.048;24.638;2023-12-07T04:29:42;97092.84;;;5.24;100.00
10464;BME280;5279;42.048;24.638;2023-12-07T04:32:08;97087.97;;;5.19;100.00
10464;BME280;5279;42.048;24.638;2023-12-07T04:34:35;97088.91;;;5.18;100.00
10464;BME280;5279;42.048;24.638;2023-12-07T04:37:03;97093.69;;;5.24;100.00
10464;BME280;5279;42.048;24.638;2023-12-07T04:39:30;97092.28;;;5.09;100.00
10464;BME280;5279;42.048;24.638;2023-12-07T04:41:56;97091.84;;;5.04;100.00
10464;BME280;5279;42.048;24.638;2023-12-07T04:44:25;97107.34;;;4.96;100.00
10464;BME280;5279;42.048;24.638;2023-12-07T04:46:52;97095.91;;;4.97;100.00
10464;BME280;5279;42.048;24.638;2023-12-07T04:49:18;97101.16;;;4.97;100.00
10464;BME280;5279;42.048;24.638;2023-12-07T04:51:45;97100.19;;;4.98;100.00
10464;BME280;5279;42.048;24.638;2023-12-07T04:54:12;97104.13;;;5.04;100.00
10464;BME280;5279;42.048;24.638;2023-12-07T04:56:40;97103.03;;;5.06;100.00
10464;BME280;5279;42.048;24.638;2023-12-07T04:59:06;97113.75;;;5.14;100.00
10464;BME280;5279;42.048;24.638;2023-12-07T05:01:35;97109.38;;;5.04;100.00
10464;BME280;5279;42.048;24.638;2023-12-07T05:04:02;97115.47;;;5.04;100.00
10464;BME280;5279;42.048;24.638;2023-12-07T05:06:30;97107.97;;;4.88;100.00
10464;BME280;5279;42.048;24.638;2023-12-07T05:08:56;97113.56;;;4.95;100.00
10464;BME280;5279;42.048;24.638;2023-12-07T05:11:23;97111.91;;;4.94;100.00
10464;BME280;5279;42.048;24.638;2023-12-07T05:13:50;97110.22;;;4.93;100.00
10464;BME280;5279;42.048;24.638;2023-12-07T05:16:17;97117.16;;;4.94;100.00
10464;BME280;5279;42.048;24.638;2023-12-07T05:18:45;97109.97;;;4.96;100.00
10464;BME280;5279;42.048;24.638;2023-12-07T05:21:11;97120.13;;;4.89;100.00
10464;BME280;5279;42.048;24.638;2023-12-07T05:23:38;97115.72;;;4.90;100.00
10464;BME280;5279;42.048;24.638;2023-12-07T05:26:05;97130.75;;;4.88;100.00
10464;BME280;5279;42.048;24.638;2023-12-07T05:28:33;97128.13;;;4.88;100.00
10464;BME280;5279;42.048;24.638;2023-12-07T05:31:00;97123.59;;;4.90;100.00
10464;BME280;5279;42.048;24.638;2023-12-07T05:33:26;97143.88;;;4.88;100.00
10464;BME280;5279;42.048;24.638;2023-12-07T05:35:55;97145.31;;;4.81;100.00
10464;BME280;5279;42.048;24.638;2023-12-07T05:38:21;97149.84;;;4.79;100.00
10464;BME280;5279;42.048;24.638;2023-12-07T05:40:48;97162.75;;;4.71;100.00
10464;BME280;5279;42.048;24.638;2023-12-07T05:43:15;97161.53;;;4.75;100.00
10464;BME280;5279;42.048;24.638;2023-12-07T05:45:41;97170.59;;;4.82;100.00
10464;BME280;5279;42.048;24.638;2023-12-07T05:48:08;97170.22;;;4.86;100.00
10464;BME280;5279;42.048;24.638;2023-12-07T05:50:35;97164.63;;;4.91;100.00
10464;BME280;5279;42.048;24.638;2023-12-07T05:53:06;97171.09;;;4.98;100.00
10464;BME280;5279;42.048;24.638;2023-12-07T05:55:32;97167.47;;;4.99;100.00
10464;BME280;5279;42.048;24.638;2023-12-07T05:57:59;97175.84;;;5.04;100.00
10464;BME280;5279;42.048;24.638;2023-12-07T06:00:26;97182.03;;;5.03;100.00
10464;BME280;5279;42.048;24.638;2023-12-07T06:02:53;97184.66;;;4.81;100.00
10464;BME280;5279;42.048;24.638;2023-12-07T06:05:19;97176.56;;;4.84;100.00
10464;BME280;5279;42.048;24.638;2023-12-07T06:07:46;97178.47;;;4.82;100.00
10464;BME280;5279;42.048;24.638;2023-12-07T06:10:14;97179.19;;;4.84;100.00
10464;BME280;5279;42.048;24.638;2023-12-07T06:12:42;97178.94;;;4.87;100.00
10464;BME280;5279;42.048;24.638;2023-12-07T06:15:09;97188.38;;;4.89;100.00
10464;BME280;5279;42.048;24.638;2023-12-07T06:17:36;97189.44;;;4.87;100.00
10464;BME280;5279;42.048;24.638;2023-12-07T06:20:03;97182.53;;;4.86;100.00
10464;BME280;5279;42.048;24.638;2023-12-07T06:22:30;97188.38;;;4.89;100.00
10464;BME280;5279;42.048;24.638;2023-12-07T06:24:57;97189.47;;;4.98;100.00
10464;BME280;5279;42.048;24.638;2023-12-07T06:27:25;97190.16;;;5.00;100.00
10464;BME280;5279;42.048;24.638;2023-12-07T06:29:52;97200.44;;;5.03;100.00
10464;BME280;5279;42.048;24.638;2023-12-07T06:32:18;97199.00;;;5.10;100.00
10464;BME280;5279;42.048;24.638;2023-12-07T06:34:45;97201.63;;;5.10;100.00
10464;BME280;5279;42.048;24.638;2023-12-07T06:37:12;97198.88;;;5.23;100.00
10464;BME280;5279;42.048;24.638;2023-12-07T06:39:39;97201.56;;;5.32;100.00
10464;BME280;5279;42.048;24.638;2023-12-07T06:42:05;97194.41;;;5.45;100.00
10464;BME280;5279;42.048;24.638;2023-12-07T06:44:35;97194.09;;;5.60;100.00
10464;BME280;5279;42.048;24.638;2023-12-07T06:47:01;97199.47;;;5.69;100.00
10464;BME280;5279;42.048;24.638;2023-12-07T06:49:30;97203.63;;;5.72;100.00
10464;BME280;5279;42.048;24.638;2023-12-07T06:51:56;97200.97;;;5.83;100.00
10464;BME280;5279;42.048;24.638;2023-12-07T06:54:23;97195.91;;;6.02;100.00
10464;BME280;5279;42.048;24.638;2023-12-07T06:56:50;97196.06;;;6.21;100.00
10464;BME280;5279;42.048;24.638;2023-12-07T06:59:17;97202.84;;;6.44;100.00
10464;BME280;5279;42.048;24.638;2023-12-07T07:01:45;97201.75;;;6.68;100.00
10464;BME280;5279;42.048;24.638;2023-12-07T07:04:12;97185.53;;;6.93;100.00
10464;BME280;5279;42.048;24.638;2023-12-07T07:06:40;97193.22;;;7.15;100.00
10464;BME280;5279;42.048;24.638;2023-12-07T07:09:07;97190.09;;;7.31;100.00
10464;BME280;5279;42.048;24.638;2023-12-07T07:11:34;97191.94;;;7.49;100.00
10464;BME280;5279;42.048;24.638;2023-12-07T07:14:02;97195.03;;;7.74;100.00
10464;BME280;5279;42.048;24.638;2023-12-07T07:16:30;97193.50;;;7.71;100.00
10464;BME280;5279;42.048;24.638;2023-12-07T07:18:58;97198.94;;;7.89;100.00
10464;BME280;5279;42.048;24.638;2023-12-07T07:21:25;97202.28;;;8.10;100.00
10464;BME280;5279;42.048;24.638;2023-12-07T07:23:51;97200.63;;;8.28;100.00
10464;BME280;5279;42.048;24.638;2023-12-07T07:26:18;97204.22;;;8.56;100.00
10464;BME280;5279;42.048;24.638;2023-12-07T07:28:45;97210.53;;;8.82;100.00
10464;BME280;5279;42.048;24.638;2023-12-07T07:31:12;97203.28;;;8.94;100.00
10464;BME280;5279;42.048;24.638;2023-12-07T07:33:38;97207.69;;;9.03;100.00
10464;BME280;5279;42.048;24.638;2023-12-07T07:36:07;97213.94;;;9.11;100.00
10464;BME280;5279;42.048;24.638;2023-12-07T07:38:34;97213.75;;;9.22;100.00
10464;BME280;5279;42.048;24.638;2023-12-07T07:41:01;97211.50;;;9.27;100.00
10464;BME280;5279;42.048;24.638;2023-12-07T07:43:27;97216.75;;;9.37;100.00
10464;BME280;5279;42.048;24.638;2023-12-07T07:45:54;97222.81;;;9.47;100.00
10464;BME280;5279;42.048;24.638;2023-12-07T07:48:21;97220.84;;;9.49;100.00
10464;BME280;5279;42.048;24.638;2023-12-07T07:50:48;97219.91;;;9.68;100.00
10464;BME280;5279;42.048;24.638;2023-12-07T07:53:16;97227.13;;;9.75;100.00
10464;BME280;5279;42.048;24.638;2023-12-07T07:55:42;97224.25;;;9.86;100.00
10464;BME280;5279;42.048;24.638;2023-12-07T07:58:09;97222.00;;;9.92;100.00
10464;BME280;5279;42.048;24.638;2023-12-07T08:00:36;97227.09;;;10.03;100.00
10464;BME280;5279;42.048;24.638;2023-12-07T08:03:03;97225.47;;;10.10;100.00
10464;BME280;5279;42.048;24.638;2023-12-07T08:05:30;97225.63;;;9.91;100.00
10464;BME280;5279;42.048;24.638;2023-12-07T08:07:56;97230.53;;;9.85;100.00
10464;BME280;5279;42.048;24.638;2023-12-07T08:10:24;97228.97;;;9.93;100.00
10464;BME280;5279;42.048;24.638;2023-12-07T08:12:51;97226.38;;;10.01;100.00
10464;BME280;5279;42.048;24.638;2023-12-07T08:15:18;97228.28;;;10.08;100.00
10464;BME280;5279;42.048;24.638;2023-12-07T08:17:47;97232.75;;;10.08;100.00
10464;BME280;5279;42.048;24.638;2023-12-07T08:20:14;97239.75;;;10.26;100.00
10464;BME280;5279;42.048;24.638;2023-12-07T08:22:41;97239.28;;;10.31;100.00
10464;BME280;5279;42.048;24.638;2023-12-07T08:25:08;97243.16;;;10.36;100.00
10464;BME280;5279;42.048;24.638;2023-12-07T08:27:36;97244.38;;;10.42;100.00
10464;BME280;5279;42.048;24.638;2023-12-07T08:30:04;97248.06;;;10.49;100.00
10464;BME280;5279;42.048;24.638;2023-12-07T08:32:31;97242.44;;;10.52;100.00
10464;BME280;5279;42.048;24.638;2023-12-07T08:34:58;97248.81;;;10.59;100.00
10464;BME280;5279;42.048;24.638;2023-12-07T08:37:24;97242.28;;;10.71;100.00
10464;BME280;5279;42.048;24.638;2023-12-07T08:39:51;97246.34;;;10.83;100.00
10464;BME280;5279;42.048;24.638;2023-12-07T08:42:18;97248.22;;;10.91;100.00
10464;BME280;5279;42.048;24.638;2023-12-07T08:44:46;97246.16;;;11.03;100.00
10464;BME280;5279;42.048;24.638;2023-12-07T08:47:13;97242.06;;;11.16;100.00
10464;BME280;5279;42.048;24.638;2023-12-07T08:49:39;97256.22;;;11.25;100.00
10464;BME280;5279;42.048;24.638;2023-12-07T08:52:06;97257.56;;;11.29;100.00
10464;BME280;5279;42.048;24.638;2023-12-07T08:54:33;97256.63;;;11.38;100.00
10464;BME280;5279;42.048;24.638;2023-12-07T08:57:01;97251.63;;;11.35;100.00
10464;BME280;5279;42.048;24.638;2023-12-07T08:59:28;97246.69;;;11.40;100.00
10464;BME280;5279;42.048;24.638;2023-12-07T09:01:56;97241.44;;;11.48;100.00
10464;BME280;5279;42.048;24.638;2023-12-07T09:04:23;97239.44;;;11.50;100.00
10464;BME280;5279;42.048;24.638;2023-12-07T09:06:50;97250.88;;;11.76;100.00
10464;BME280;5279;42.048;24.638;2023-12-07T09:09:17;97241.56;;;11.80;100.00
10464;BME280;5279;42.048;24.638;2023-12-07T09:11:43;97235.28;;;11.81;100.00
10464;BME280;5279;42.048;24.638;2023-12-07T09:14:10;97244.28;;;11.88;100.00
10464;BME280;5279;42.048;24.638;2023-12-07T09:16:43;97248.75;;;11.88;100.00
10464;BME280;5279;42.048;24.638;2023-12-07T09:19:12;97238.31;;;11.94;100.00
10464;BME280;5279;42.048;24.638;2023-12-07T09:21:39;97236.84;;;12.16;100.00
10464;BME280;5279;42.048;24.638;2023-12-07T09:24:06;97234.75;;;12.44;100.00
10464;BME280;5279;42.048;24.638;2023-12-07T09:26:33;97237.72;;;12.65;100.00
10464;BME280;5279;42.048;24.638;2023-12-07T09:29:00;97232.06;;;13.00;96.41
10464;BME280;5279;42.048;24.638;2023-12-07T09:31:27;97238.25;;;13.56;88.06
10464;BME280;5279;42.048;24.638;2023-12-07T09:33:53;97226.66;;;14.18;82.75
10464;BME280;5279;42.048;24.638;2023-12-07T09:36:23;97221.13;;;13.97;85.48
10464;BME280;5279;42.048;24.638;2023-12-07T09:38:52;97217.53;;;13.82;88.97
10464;BME280;5279;42.048;24.638;2023-12-07T09:41:19;97222.09;;;13.96;86.83
10464;BME280;5279;42.048;24.638;2023-12-07T09:43:45;97219.72;;;14.09;79.98
10464;BME280;5279;42.048;24.638;2023-12-07T09:46:13;97209.50;;;13.90;80.78
10464;BME280;5279;42.048;24.638;2023-12-07T09:48:42;97210.47;;;13.97;83.88
10464;BME280;5279;42.048;24.638;2023-12-07T09:51:09;97214.13;;;13.96;83.00
10464;BME280;5279;42.048;24.638;2023-12-07T09:53:39;97206.47;;;13.93;85.80
10464;BME280;5279;42.048;24.638;2023-12-07T09:56:08;97212.56;;;13.79;85.61
10464;BME280;5279;42.048;24.638;2023-12-07T09:58:35;97209.84;;;13.48;91.93
10464;BME280;5279;42.048;24.638;2023-12-07T10:01:02;97209.91;;;13.40;94.23
10464;BME280;5279;42.048;24.638;2023-12-07T10:03:28;97206.75;;;13.37;94.60
10464;BME280;5279;42.048;24.638;2023-12-07T10:05:57;97208.44;;;13.22;96.32
10464;BME280;5279;42.048;24.638;2023-12-07T10:08:29;97213.94;;;13.28;97.50
10464;BME280;5279;42.048;24.638;2023-12-07T10:11:06;97201.66;;;13.19;100.00
10464;BME280;5279;42.048;24.638;2023-12-07T10:13:33;97207.47;;;13.14;98.68
10464;BME280;5279;42.048;24.638;2023-12-07T10:16:11;97204.16;;;12.88;98.46
10464;BME280;5279;42.048;24.638;2023-12-07T10:18:39;97197.66;;;12.99;99.28
10464;BME280;5279;42.048;24.638;2023-12-07T10:21:07;97195.03;;;12.91;98.38
10464;BME280;5279;42.048;24.638;2023-12-07T10:23:34;97196.16;;;12.96;97.73
10464;BME280;5279;42.048;24.638;2023-12-07T10:26:02;97191.22;;;12.69;99.61
10464;BME280;5279;42.048;24.638;2023-12-07T10:28:30;97194.72;;;12.45;92.33
10464;BME280;5279;42.048;24.638;2023-12-07T10:30:57;97202.69;;;12.37;97.77
10464;BME280;5279;42.048;24.638;2023-12-07T10:33:25;97203.66;;;12.28;95.93
10464;BME280;5279;42.048;24.638;2023-12-07T10:35:52;97194.03;;;12.19;97.72
10464;BME280;5279;42.048;24.638;2023-12-07T10:38:19;97194.19;;;12.01;100.00
10464;BME280;5279;42.048;24.638;2023-12-07T10:40:46;97193.81;;;11.80;100.00
10464;BME280;5279;42.048;24.638;2023-12-07T10:43:14;97190.41;;;11.62;100.00
10464;BME280;5279;42.048;24.638;2023-12-07T10:45:44;97181.72;;;11.44;100.00
10464;BME280;5279;42.048;24.638;2023-12-07T10:48:11;97185.53;;;11.49;100.00
10464;BME280;5279;42.048;24.638;2023-12-07T10:50:41;97187.91;;;11.61;100.00
10464;BME280;5279;42.048;24.638;2023-12-07T10:53:14;97185.72;;;11.56;100.00
10464;BME280;5279;42.048;24.638;2023-12-07T10:55:47;97183.38;;;11.45;100.00
10464;BME280;5279;42.048;24.638;2023-12-07T10:58:17;97176.72;;;11.41;100.00
10464;BME280;5279;42.048;24.638;2023-12-07T11:00:47;97179.69;;;11.38;100.00
10464;BME280;5279;42.048;24.638;2023-12-07T11:03:15;97177.56;;;11.41;100.00
10464;BME280;5279;42.048;24.638;2023-12-07T11:05:44;97174.41;;;11.46;100.00
10464;BME280;5279;42.048;24.638;2023-12-07T11:08:14;97178.91;;;11.45;100.00
10464;BME280;5279;42.048;24.638;2023-12-07T11:10:47;97183.13;;;11.64;94.70
10464;BME280;5279;42.048;24.638;2023-12-07T11:13:19;97184.19;;;11.79;87.86
10464;BME280;5279;42.048;24.638;2023-12-07T11:15:50;97176.25;;;11.95;100.00
10464;BME280;5279;42.048;24.638;2023-12-07T11:18:17;97170.13;;;12.11;100.00
10464;BME280;5279;42.048;24.638;2023-12-07T11:20:45;97177.44;;;12.49;98.91
10464;BME280;5279;42.048;24.638;2023-12-07T11:23:15;97173.94;;;12.81;100.00
10464;BME280;5279;42.048;24.638;2023-12-07T11:25:44;97173.22;;;13.03;100.00
10464;BME280;5279;42.048;24.638;2023-12-07T11:28:12;97179.19;;;13.13;93.70
10464;BME280;5279;42.048;24.638;2023-12-07T11:30:42;97173.88;;;13.13;88.10
10464;BME280;5279;42.048;24.638;2023-12-07T11:33:11;97171.25;;;12.97;75.00
10464;BME280;5279;42.048;24.638;2023-12-07T11:36:05;97172.88;;;13.14;74.13
10464;BME280;5279;42.048;24.638;2023-12-07T11:38:32;97173.56;;;13.55;70.17
10464;BME280;5279;42.048;24.638;2023-12-07T11:40:59;97166.31;;;14.03;69.18
10464;BME280;5279;42.048;24.638;2023-12-07T11:43:47;97168.75;;;14.58;66.88
10464;BME280;5279;42.048;24.638;2023-12-07T11:46:19;97161.22;;;14.61;62.43
10464;BME280;5279;42.048;24.638;2023-12-07T11:48:48;97167.53;;;14.98;64.40
10464;BME280;5279;42.048;24.638;2023-12-07T11:51:15;97156.03;;;15.26;64.27
10464;BME280;5279;42.048;24.638;2023-12-07T11:53:42;97162.28;;;15.33;62.89
10464;BME280;5279;42.048;24.638;2023-12-07T11:56:10;97169.09;;;14.92;63.70
10464;BME280;5279;42.048;24.638;2023-12-07T11:58:38;97168.09;;;14.56;63.99
10464;BME280;5279;42.048;24.638;2023-12-07T12:01:05;97164.75;;;14.08;64.84
10464;BME280;5279;42.048;24.638;2023-12-07T12:03:32;97156.78;;;13.78;65.16
10464;BME280;5279;42.048;24.638;2023-12-07T12:06:03;97156.41;;;13.58;69.73
10464;BME280;5279;42.048;24.638;2023-12-07T12:08:30;97170.09;;;12.84;68.10
10464;BME280;5279;42.048;24.638;2023-12-07T12:10:57;97167.81;;;12.48;70.68
10464;BME280;5279;42.048;24.638;2023-12-07T12:13:26;97158.69;;;12.19;75.75
10464;BME280;5279;42.048;24.638;2023-12-07T12:15:54;97156.22;;;11.51;78.58
10464;BME280;5279;42.048;24.638;2023-12-07T12:18:22;97143.38;;;11.30;83.41
10464;BME280;5279;42.048;24.638;2023-12-07T12:20:50;97131.88;;;11.14;87.07
10464;BME280;5279;42.048;24.638;2023-12-07T12:23:19;97153.03;;;11.06;85.12
10464;BME280;5279;42.048;24.638;2023-12-07T12:25:46;97144.56;;;11.02;89.46
10464;BME280;5279;42.048;24.638;2023-12-07T12:28:15;97148.09;;;11.11;88.12
10464;BME280;5279;42.048;24.638;2023-12-07T12:30:43;97139.47;;;11.09;91.34
10464;BME280;5279;42.048;24.638;2023-12-07T12:33:10;97137.50;;;11.19;86.36
10464;BME280;5279;42.048;24.638;2023-12-07T12:35:37;97139.72;;;11.31;90.67
10464;BME280;5279;42.048;24.638;2023-12-07T12:38:09;97136.00;;;11.08;90.61
10464;BME280;5279;42.048;24.638;2023-12-07T12:40:37;97138.75;;;10.98;93.76
10464;BME280;5279;42.048;24.638;2023-12-07T12:43:04;97133.66;;;10.79;99.86
10464;BME280;5279;42.048;24.638;2023-12-07T12:45:33;97141.16;;;10.84;100.00
10464;BME280;5279;42.048;24.638;2023-12-07T12:48:00;97142.38;;;10.97;100.00
10464;BME280;5279;42.048;24.638;2023-12-07T12:50:34;97142.38;;;10.97;100.00
10464;BME280;5279;42.048;24.638;2023-12-07T12:53:02;97141.06;;;10.93;100.00
10464;BME280;5279;42.048;24.638;2023-12-07T12:55:31;97140.75;;;10.96;100.00
10464;BME280;5279;42.048;24.638;2023-12-07T12:57:59;97141.56;;;10.97;100.00
10464;BME280;5279;42.048;24.638;2023-12-07T13:00:26;97143.00;;;10.91;100.00